createdAt,value
2018-07-13T00:01:19.331Z,8.10
2018-07-13T00:03:47.551Z,7.57
2018-07-13T00:06:15.799Z,7.57
2018-07-13T00:08:43.956Z,7.67
2018-07-13T00:11:12.170Z,7.90
2018-07-13T00:13:50.805Z,7.97
2018-07-13T00:16:19.167Z,7.67
2018-07-13T00:18:47.347Z,8.17
2018-07-13T00:21:15.575Z,8.10
2018-07-13T00:23:44.112Z,8.40
2018-07-13T00:26:12.396Z,8.07
2018-07-13T00:28:40.611Z,7.63
2018-07-13T00:31:08.916Z,8.13
2018-07-13T00:33:37.423Z,7.77
2018-07-13T00:36:05.599Z,8.20
2018-07-13T00:38:33.807Z,7.80
2018-07-13T00:41:02.299Z,7.63
2018-07-13T00:43:30.487Z,7.43
2018-07-13T00:45:58.815Z,7.17
2018-07-13T00:48:26.981Z,8.23
2018-07-13T00:50:55.170Z,6.70
2018-07-13T00:53:23.331Z,7.07
2018-07-13T00:55:51.518Z,7.37
2018-07-13T00:58:19.648Z,7.50
2018-07-13T01:00:47.815Z,6.77
2018-07-13T01:03:16.335Z,7.77
2018-07-13T01:05:44.511Z,7.90
2018-07-13T01:08:12.701Z,7.43
2018-07-13T01:10:40.867Z,8.33
2018-07-13T01:13:09.046Z,7.70
2018-07-13T01:15:37.224Z,8.07
2018-07-13T01:18:05.803Z,7.90
2018-07-13T01:20:34.071Z,8.60
2018-07-13T01:23:02.292Z,8.53
2018-07-13T01:25:30.482Z,8.27
2018-07-13T01:27:58.824Z,9.43
2018-07-13T01:30:26.982Z,8.47
2018-07-13T01:32:55.187Z,8.10
2018-07-13T01:35:23.463Z,8.13
2018-07-13T01:37:51.835Z,8.37
2018-07-13T01:40:20.431Z,8.57
2018-07-13T01:42:48.627Z,9.73
2018-07-13T01:45:16.830Z,8.33
2018-07-13T01:47:45.329Z,8.03
2018-07-13T01:50:14.040Z,8.33
2018-07-13T01:52:42.297Z,9.87
2018-07-13T01:55:10.485Z,8.17
2018-07-13T01:57:38.983Z,8.43
2018-07-13T02:00:08.067Z,8.80
2018-07-13T02:02:36.231Z,8.00
2018-07-13T02:05:04.949Z,7.70
2018-07-13T02:07:33.608Z,7.27
2018-07-13T02:10:01.791Z,8.30
2018-07-13T02:12:30.166Z,8.17
2018-07-13T02:14:58.360Z,8.20
2018-07-13T02:17:26.707Z,7.23
2018-07-13T02:19:54.840Z,8.10
2018-07-13T02:22:22.983Z,7.90
2018-07-13T02:24:51.127Z,8.20
2018-07-13T02:27:19.308Z,8.40
2018-07-13T02:29:47.717Z,7.60
2018-07-13T02:32:16.175Z,8.23
2018-07-13T02:34:44.587Z,8.03
2018-07-13T02:37:12.783Z,7.33
2018-07-13T02:39:40.921Z,7.77
2018-07-13T02:42:09.408Z,8.53
2018-07-13T02:44:37.564Z,8.50
2018-07-13T02:47:05.863Z,7.80
2018-07-13T02:49:34.013Z,7.80
2018-07-13T02:52:02.554Z,7.20
2018-07-13T02:54:30.892Z,8.20
2018-07-13T02:56:59.067Z,7.83
2018-07-13T02:59:27.440Z,8.43
2018-07-13T03:01:55.611Z,8.13
2018-07-13T03:04:23.942Z,8.07
2018-07-13T03:06:52.324Z,7.70
2018-07-13T03:09:20.461Z,6.90
2018-07-13T03:11:48.819Z,8.13
2018-07-13T03:14:17.007Z,8.10
2018-07-13T03:16:45.181Z,7.30
2018-07-13T03:19:13.583Z,8.90
2018-07-13T03:21:41.723Z,7.73
2018-07-13T03:24:09.988Z,7.40
2018-07-13T03:26:38.240Z,8.43
2018-07-13T03:29:06.421Z,8.27
2018-07-13T03:31:34.732Z,8.13
2018-07-13T03:34:02.923Z,7.73
2018-07-13T03:36:31.091Z,6.97
2018-07-13T03:38:59.295Z,7.50
2018-07-13T03:41:27.452Z,8.27
2018-07-13T03:43:55.762Z,9.70
2018-07-13T03:46:24.103Z,8.07
2018-07-13T03:48:52.264Z,7.23
2018-07-13T03:51:20.503Z,8.90
2018-07-13T03:53:48.632Z,8.30
2018-07-13T03:56:17.115Z,8.97
2018-07-13T03:58:45.633Z,8.23
2018-07-13T04:01:13.775Z,7.67
2018-07-13T04:03:41.953Z,7.43
2018-07-13T04:06:10.117Z,7.83
2018-07-13T04:08:38.260Z,7.50
2018-07-13T04:11:06.605Z,8.17
2018-07-13T04:13:34.756Z,8.23
2018-07-13T04:16:02.929Z,8.20
2018-07-13T04:18:31.420Z,8.77
2018-07-13T04:20:59.912Z,8.30
2018-07-13T04:23:28.157Z,7.50
2018-07-13T04:25:56.355Z,8.13
2018-07-13T04:28:24.633Z,9.03
2018-07-13T04:30:52.804Z,10.20
2018-07-13T04:33:21.370Z,9.60
2018-07-13T04:35:49.560Z,9.53
2018-07-13T04:38:17.735Z,9.10
2018-07-13T04:40:45.919Z,9.50
2018-07-13T04:43:14.505Z,10.90
2018-07-13T04:45:42.755Z,9.40
2018-07-13T04:48:11.035Z,8.17
2018-07-13T04:50:39.364Z,8.60
2018-07-13T04:53:07.684Z,9.00
2018-07-13T04:55:35.903Z,8.50
2018-07-13T04:58:04.172Z,9.20
2018-07-13T05:00:32.463Z,7.50
2018-07-13T05:03:01.333Z,10.20
2018-07-13T05:05:29.492Z,10.60
2018-07-13T05:07:57.718Z,13.40
2018-07-13T05:10:25.864Z,14.67
2018-07-13T05:12:54.032Z,12.13
2018-07-13T05:15:22.416Z,11.27
2018-07-13T05:17:50.593Z,10.80
2018-07-13T05:20:18.848Z,11.33
2018-07-13T05:22:47.228Z,9.97
2018-07-13T05:25:15.467Z,10.20
2018-07-13T05:27:43.788Z,9.87
2018-07-13T05:30:12.019Z,10.97
2018-07-13T05:32:40.179Z,10.10
2018-07-13T05:35:08.337Z,10.00
2018-07-13T05:37:36.619Z,9.30
2018-07-13T05:40:05.298Z,10.70
2018-07-13T05:42:33.723Z,9.10
2018-07-13T05:45:01.948Z,9.60
2018-07-13T05:47:30.619Z,10.03
2018-07-13T05:49:58.820Z,9.53
2018-07-13T05:52:27.389Z,9.90
2018-07-13T05:54:55.763Z,8.70
2018-07-13T05:57:23.949Z,9.17
2018-07-13T05:59:52.132Z,8.73
2018-07-13T06:02:20.311Z,8.37
2018-07-13T06:04:48.579Z,7.93
2018-07-13T06:07:16.823Z,8.00
2018-07-13T06:09:45.049Z,8.70
2018-07-13T06:12:13.431Z,7.30
2018-07-13T06:14:41.618Z,8.60
2018-07-13T06:17:10.014Z,8.30
2018-07-13T06:19:38.167Z,7.80
2018-07-13T06:22:06.479Z,7.67
2018-07-13T06:24:34.816Z,8.00
2018-07-13T06:27:03.325Z,7.10
2018-07-13T06:29:31.546Z,8.43
2018-07-13T06:31:59.900Z,8.30
2018-07-13T06:34:28.262Z,7.67
2018-07-13T06:36:56.481Z,8.27
2018-07-13T06:39:24.759Z,7.90
2018-07-13T06:41:53.064Z,7.33
2018-07-13T06:44:21.572Z,9.40
2018-07-13T06:46:49.712Z,7.03
2018-07-13T06:49:18.491Z,8.30
2018-07-13T06:51:46.760Z,8.07
2018-07-13T06:54:14.951Z,8.30
2018-07-13T06:56:43.099Z,7.53
2018-07-13T06:59:13.769Z,8.00
2018-07-13T07:01:42.555Z,9.60
2018-07-13T07:04:41.661Z,8.63
2018-07-13T07:07:10.751Z,7.83
2018-07-13T07:09:39.357Z,7.90
2018-07-13T07:12:43.744Z,8.70
2018-07-13T07:15:11.944Z,7.53
2018-07-13T07:17:40.428Z,7.57
2018-07-13T07:20:08.924Z,8.53
2018-07-13T07:22:37.059Z,7.87
2018-07-13T07:25:05.508Z,7.70
2018-07-13T07:27:33.663Z,7.23
2018-07-13T07:30:02.013Z,8.20
2018-07-13T07:32:30.196Z,7.57
2018-07-13T07:34:58.565Z,7.70
2018-07-13T07:37:27.181Z,7.40
2018-07-13T07:39:55.427Z,7.00
2018-07-13T07:42:23.927Z,6.40
2018-07-13T07:44:52.184Z,7.17
2018-07-13T07:47:20.388Z,5.87
2018-07-13T07:49:48.548Z,6.40
2018-07-13T07:52:16.803Z,8.13
2018-07-13T07:54:45.279Z,7.17
2018-07-13T07:57:13.499Z,7.97
2018-07-13T07:59:41.743Z,7.07
2018-07-13T08:02:09.919Z,6.20
2018-07-13T08:04:38.096Z,6.87
2018-07-13T08:07:06.705Z,6.93
2018-07-13T08:09:34.887Z,6.37
2018-07-13T08:12:03.062Z,7.10
2018-07-13T08:14:31.385Z,6.97
2018-07-13T08:16:59.775Z,7.20
2018-07-13T08:19:28.006Z,6.57
2018-07-13T08:21:56.464Z,7.63
2018-07-13T08:24:24.688Z,8.67
2018-07-13T08:26:55.002Z,7.97
2018-07-13T08:29:25.344Z,7.20
2018-07-13T08:31:53.679Z,7.03
2018-07-13T08:34:22.304Z,7.90
2018-07-13T08:36:50.436Z,6.70
2018-07-13T08:39:18.649Z,6.90
2018-07-13T08:41:46.900Z,4.60
2018-07-13T08:44:15.248Z,6.27
2018-07-13T08:46:43.432Z,6.40
2018-07-13T08:49:12.733Z,5.83
2018-07-13T08:51:41.064Z,6.00
2018-07-13T08:54:09.539Z,5.40
2018-07-13T08:56:38.155Z,5.67
2018-07-13T08:59:06.354Z,5.73
2018-07-13T09:01:35.010Z,5.70
2018-07-13T09:04:03.623Z,6.87
2018-07-13T09:06:31.974Z,5.23
2018-07-13T09:09:00.907Z,5.27
2018-07-13T09:11:29.282Z,7.37
2018-07-13T09:13:57.863Z,6.67
2018-07-13T09:16:26.048Z,5.83
2018-07-13T09:18:54.264Z,6.90
2018-07-13T09:21:22.456Z,6.20
2018-07-13T09:23:50.676Z,5.73
2018-07-13T09:26:18.943Z,6.30
2018-07-13T09:28:47.239Z,5.43
2018-07-13T09:31:15.453Z,8.83
2018-07-13T09:33:44.094Z,8.67
2018-07-13T09:36:12.248Z,6.40
2018-07-13T09:38:40.452Z,6.00
2018-07-13T09:41:08.980Z,5.73
2018-07-13T09:43:37.152Z,5.50
2018-07-13T09:46:05.465Z,5.23
2018-07-13T09:48:33.996Z,4.53
2018-07-13T09:51:02.254Z,4.73
2018-07-13T09:53:30.714Z,4.70
2018-07-13T09:55:59.219Z,4.57
2018-07-13T09:58:31.567Z,5.17
2018-07-13T10:01:05.581Z,4.77
2018-07-13T10:03:33.771Z,5.20
2018-07-13T10:06:02.572Z,4.70
2018-07-13T10:08:31.659Z,5.33
2018-07-13T10:11:00.282Z,5.30
2018-07-13T10:13:28.497Z,5.13
2018-07-13T10:15:57.015Z,4.80
2018-07-13T10:18:25.168Z,5.00
2018-07-13T10:20:53.568Z,7.67
2018-07-13T10:23:22.376Z,4.70
2018-07-13T10:25:52.060Z,5.47
2018-07-13T10:28:20.603Z,5.40
2018-07-13T10:30:48.818Z,4.80
2018-07-13T10:33:18.307Z,5.20
2018-07-13T10:35:46.519Z,4.47
2018-07-13T10:38:14.680Z,4.30
2018-07-13T10:40:43.687Z,4.17
2018-07-13T10:43:12.085Z,4.20
2018-07-13T10:45:40.268Z,4.23
2018-07-13T10:48:08.612Z,4.17
2018-07-13T10:50:36.775Z,3.83
2018-07-13T10:53:05.000Z,4.73
2018-07-13T10:55:33.136Z,4.00
2018-07-13T10:58:01.712Z,5.03
2018-07-13T11:00:29.883Z,4.10
2018-07-13T11:02:58.106Z,4.03
2018-07-13T11:05:26.591Z,4.50
2018-07-13T11:07:54.800Z,5.00
2018-07-13T11:10:23.308Z,4.77
2018-07-13T11:12:51.953Z,4.87
2018-07-13T11:15:20.476Z,4.73
2018-07-13T11:17:48.713Z,4.20
2018-07-13T11:20:16.864Z,3.70
2018-07-13T11:22:45.287Z,4.37
2018-07-13T11:25:13.492Z,4.10
2018-07-13T11:27:41.642Z,3.67
2018-07-13T11:30:09.992Z,4.63
2018-07-13T11:32:38.140Z,4.23
2018-07-13T11:35:06.284Z,4.17
2018-07-13T11:37:34.423Z,3.97
2018-07-13T11:40:02.769Z,4.23
2018-07-13T11:42:30.964Z,3.20
2018-07-13T11:44:59.095Z,3.33
2018-07-13T11:47:27.232Z,3.43
2018-07-13T11:49:55.502Z,3.83
2018-07-13T11:52:23.795Z,3.87
2018-07-13T11:54:51.964Z,3.30
2018-07-13T11:57:20.167Z,3.70
2018-07-13T11:59:48.301Z,3.70
2018-07-13T12:02:16.635Z,4.40
2018-07-13T12:04:44.829Z,4.50
2018-07-13T12:07:12.971Z,4.57
2018-07-13T12:09:41.260Z,4.20
2018-07-13T12:12:09.437Z,4.50
2018-07-13T12:14:37.619Z,4.50
2018-07-13T12:17:06.079Z,4.40
2018-07-13T12:19:34.380Z,4.40
2018-07-13T12:22:02.542Z,4.50
2018-07-13T12:24:30.774Z,4.13
2018-07-13T12:26:58.987Z,4.70
2018-07-13T12:29:27.281Z,4.30
2018-07-13T12:31:55.453Z,3.80
2018-07-13T12:34:23.835Z,5.30
2018-07-13T12:36:52.085Z,4.30
2018-07-13T12:39:20.285Z,4.77
2018-07-13T12:41:48.539Z,4.60
2018-07-13T12:44:16.842Z,4.50
2018-07-13T12:46:45.017Z,4.27
2018-07-13T12:49:13.744Z,4.43
2018-07-13T12:51:42.487Z,4.27
2018-07-13T12:54:10.954Z,4.50
2018-07-13T12:56:39.620Z,4.00
2018-07-13T12:59:07.781Z,4.33
2018-07-13T13:01:36.200Z,4.60
2018-07-13T13:04:04.488Z,3.83
2018-07-13T13:06:32.748Z,3.00
2018-07-13T13:09:00.962Z,4.33
2018-07-13T13:11:29.306Z,4.10
2018-07-13T13:13:57.749Z,4.33
2018-07-13T13:16:25.868Z,6.30
2018-07-13T13:18:54.101Z,4.70
2018-07-13T13:21:22.249Z,4.93
2018-07-13T13:23:50.522Z,4.23
2018-07-13T13:26:18.672Z,4.27
2018-07-13T13:28:46.839Z,4.07
2018-07-13T13:31:16.683Z,4.13
2018-07-13T13:33:44.992Z,3.67
2018-07-13T13:36:13.229Z,4.40
2018-07-13T13:38:41.435Z,3.83
2018-07-13T13:41:09.807Z,3.90
2018-07-13T13:43:38.567Z,3.83
2018-07-13T13:46:06.960Z,3.83
2018-07-13T13:48:35.112Z,3.93
2018-07-13T13:51:03.780Z,3.40
2018-07-13T13:53:32.045Z,3.20
2018-07-13T13:56:00.409Z,4.53
2018-07-13T13:58:28.573Z,3.53
2018-07-13T14:00:56.927Z,4.83
2018-07-13T14:03:25.112Z,3.90
2018-07-13T14:05:53.368Z,3.40
2018-07-13T14:08:21.546Z,3.83
2018-07-13T14:10:49.858Z,4.57
2018-07-13T14:13:18.203Z,3.67
2018-07-13T14:15:46.388Z,3.67
2018-07-13T14:18:14.571Z,4.47
2018-07-13T14:20:42.813Z,4.60
2018-07-13T14:23:11.220Z,4.10
2018-07-13T14:25:39.388Z,4.30
2018-07-13T14:28:07.656Z,4.00
2018-07-13T14:30:35.921Z,4.20
2018-07-13T14:33:04.111Z,4.13
2018-07-13T14:35:32.301Z,3.50
2018-07-13T14:38:00.670Z,4.17
2018-07-13T14:40:28.865Z,3.60
2018-07-13T14:42:57.282Z,3.67
2018-07-13T14:45:25.660Z,4.10
2018-07-13T14:47:53.828Z,3.47
2018-07-13T14:50:21.984Z,3.90
2018-07-13T14:52:50.155Z,3.60
2018-07-13T14:55:18.327Z,3.33
2018-07-13T14:57:46.531Z,3.33
2018-07-13T15:00:14.680Z,3.50
2018-07-13T15:02:42.864Z,3.20
2018-07-13T15:05:11.045Z,3.00
2018-07-13T15:07:39.399Z,3.57
2018-07-13T15:10:07.620Z,3.67
2018-07-13T15:12:36.344Z,4.90
2018-07-13T15:15:04.592Z,6.00
2018-07-13T15:17:32.993Z,3.27
2018-07-13T15:20:01.463Z,2.80
2018-07-13T15:22:29.921Z,3.47
2018-07-13T15:24:58.112Z,4.10
2018-07-13T15:27:26.413Z,3.67
2018-07-13T15:29:54.561Z,3.90
2018-07-13T15:32:22.729Z,3.27
2018-07-13T15:34:50.908Z,3.60
2018-07-13T15:37:19.163Z,3.63
2018-07-13T15:39:47.512Z,3.37
2018-07-13T15:42:15.778Z,4.60
2018-07-13T15:44:44.076Z,3.73
2018-07-13T15:47:12.281Z,4.23
2018-07-13T15:49:40.590Z,4.17
2018-07-13T15:52:08.799Z,3.60
2018-07-13T15:54:36.963Z,3.57
2018-07-13T15:57:05.188Z,3.10
2018-07-13T15:59:33.361Z,3.70
2018-07-13T16:02:01.550Z,3.70
2018-07-13T16:04:29.732Z,3.20
2018-07-13T16:06:57.928Z,3.43
2018-07-13T16:09:26.159Z,4.23
2018-07-13T16:11:54.423Z,3.23
2018-07-13T16:14:22.554Z,3.50
2018-07-13T16:16:50.773Z,3.70
2018-07-13T16:19:18.899Z,5.10
2018-07-13T16:21:47.041Z,5.70
2018-07-13T16:24:15.184Z,4.50
2018-07-13T16:26:43.360Z,4.63
2018-07-13T16:29:11.563Z,4.73
2018-07-13T16:31:39.784Z,4.43
2018-07-13T16:34:08.010Z,4.10
2018-07-13T16:36:36.344Z,5.23
2018-07-13T16:39:05.217Z,4.80
2018-07-13T16:41:33.363Z,3.67
2018-07-13T16:44:01.527Z,4.90
2018-07-13T16:46:29.695Z,4.67
2018-07-13T16:48:57.869Z,4.60
2018-07-13T16:51:26.446Z,4.60
2018-07-13T16:53:54.592Z,5.40
2018-07-13T16:56:22.844Z,3.93
2018-07-13T16:58:51.070Z,4.20
2018-07-13T17:01:19.599Z,5.37
2018-07-13T17:03:47.779Z,4.13
2018-07-13T17:06:16.033Z,4.80
2018-07-13T17:08:44.295Z,5.10
2018-07-13T17:11:12.532Z,4.90
2018-07-13T17:13:40.712Z,4.07
2018-07-13T17:16:08.931Z,4.87
2018-07-13T17:18:37.128Z,4.27
2018-07-13T17:21:05.620Z,3.80
2018-07-13T17:23:33.809Z,4.03
2018-07-13T17:26:02.196Z,4.10
2018-07-13T17:28:30.454Z,4.50
2018-07-13T17:30:58.709Z,4.73
2018-07-13T17:33:27.286Z,4.13
2018-07-13T17:35:55.726Z,4.50
2018-07-13T17:38:23.917Z,4.93
2018-07-13T17:40:52.355Z,4.90
2018-07-13T17:43:20.476Z,5.23
2018-07-13T17:45:48.823Z,4.33
2018-07-13T17:48:16.941Z,4.60
2018-07-13T17:50:45.180Z,4.13
2018-07-13T17:53:13.676Z,4.53
2018-07-13T17:55:41.883Z,4.57
2018-07-13T17:58:10.176Z,4.30
2018-07-13T18:00:38.344Z,5.07
2018-07-13T18:03:06.700Z,4.10
2018-07-13T18:05:35.244Z,5.00
2018-07-13T18:08:03.452Z,4.90
2018-07-13T18:10:31.943Z,4.40
2018-07-13T18:13:00.336Z,5.27
2018-07-13T18:15:28.612Z,5.30
2018-07-13T18:17:56.796Z,4.60
2018-07-13T18:20:24.940Z,4.23
2018-07-13T18:22:53.150Z,4.43
2018-07-13T18:25:21.580Z,4.27
2018-07-13T18:27:49.839Z,4.00
2018-07-13T18:30:18.024Z,4.70
2018-07-13T18:32:46.202Z,4.83
2018-07-13T18:35:14.502Z,4.90
2018-07-13T18:37:42.666Z,5.33
2018-07-13T18:40:10.816Z,4.60
2018-07-13T18:42:38.972Z,4.93
2018-07-13T18:45:07.445Z,6.87
2018-07-13T18:47:35.592Z,6.40
2018-07-13T18:50:03.865Z,6.80
2018-07-13T18:52:32.100Z,5.90
2018-07-13T18:55:00.447Z,5.80
2018-07-13T18:57:28.679Z,5.80
2018-07-13T18:59:56.876Z,6.60
2018-07-13T19:02:25.140Z,5.93
2018-07-13T19:04:53.297Z,5.47
2018-07-13T19:07:21.678Z,6.27
2018-07-13T19:09:50.133Z,10.53
2018-07-13T19:12:18.359Z,6.30
2018-07-13T19:14:46.590Z,7.73
2018-07-13T19:17:14.824Z,13.37
2018-07-13T19:19:43.020Z,17.57
2018-07-13T19:22:11.178Z,14.17
2018-07-13T19:24:39.345Z,16.77
2018-07-13T19:27:07.488Z,13.50
2018-07-13T19:29:35.657Z,12.17
2018-07-13T19:32:03.808Z,10.87
2018-07-13T19:34:32.003Z,11.20
2018-07-13T19:37:00.382Z,13.33
2018-07-13T19:39:28.599Z,9.97
2018-07-13T19:41:56.808Z,9.47
2018-07-13T19:44:25.179Z,9.10
2018-07-13T19:46:53.622Z,7.80
2018-07-13T19:49:21.794Z,7.20
2018-07-13T19:51:50.089Z,8.93
2018-07-13T19:54:18.256Z,8.40
2018-07-13T19:56:46.424Z,7.63
2018-07-13T19:59:14.650Z,7.07
2018-07-13T20:01:43.000Z,6.67
2018-07-13T20:04:11.268Z,9.40
2018-07-13T20:06:39.467Z,6.23
2018-07-13T20:09:07.719Z,5.63
2018-07-13T20:11:36.025Z,8.90
2018-07-13T20:14:04.712Z,6.60
2018-07-13T20:16:33.068Z,5.93
2018-07-13T20:19:01.564Z,7.20
2018-07-13T20:21:29.907Z,6.77
2018-07-13T20:23:58.105Z,6.80
2018-07-13T20:26:26.399Z,6.60
2018-07-13T20:28:54.849Z,7.60
2018-07-13T20:31:23.011Z,7.47
2018-07-13T20:33:51.222Z,7.27
2018-07-13T20:36:19.962Z,7.70
2018-07-13T20:38:48.091Z,6.57
2018-07-13T20:41:16.267Z,7.33
2018-07-13T20:43:44.632Z,7.63
2018-07-13T20:46:12.850Z,8.03
2018-07-13T20:48:40.988Z,7.10
2018-07-13T20:51:09.628Z,7.50
2018-07-13T20:53:38.146Z,8.07
2018-07-13T20:56:06.375Z,7.80
2018-07-13T20:58:34.575Z,7.43
2018-07-13T21:01:02.797Z,7.73
2018-07-13T21:03:31.041Z,6.63
2018-07-13T21:05:59.199Z,6.80
2018-07-13T21:08:27.789Z,7.37
2018-07-13T21:10:55.991Z,7.20
2018-07-13T21:13:24.215Z,7.53
2018-07-13T21:15:52.359Z,7.17
2018-07-13T21:18:20.651Z,7.50
2018-07-13T21:20:48.887Z,7.50
2018-07-13T21:23:17.261Z,8.37
2018-07-13T21:25:45.512Z,7.40
2018-07-13T21:28:13.864Z,7.60
2018-07-13T21:30:42.048Z,10.63
2018-07-13T21:33:10.196Z,7.10
2018-07-13T21:35:38.391Z,9.20
2018-07-13T21:38:06.558Z,9.07
2018-07-13T21:40:34.996Z,11.17
2018-07-13T21:43:03.380Z,7.47
2018-07-13T21:45:31.806Z,8.10
2018-07-13T21:47:59.973Z,8.73
2018-07-13T21:50:28.182Z,7.37
2018-07-13T21:52:56.612Z,9.17
2018-07-13T21:55:24.916Z,8.27
2018-07-13T21:57:53.111Z,7.97
2018-07-13T22:00:21.548Z,8.47
2018-07-13T22:02:50.290Z,7.63
2018-07-13T22:07:51.008Z,8.57
2018-07-13T22:10:19.167Z,9.30
2018-07-13T22:12:47.564Z,8.90
2018-07-13T22:15:15.895Z,8.23
2018-07-13T22:17:44.170Z,8.73
2018-07-13T22:20:12.454Z,8.83
2018-07-13T22:22:40.686Z,8.70
2018-07-13T22:25:09.071Z,9.10
2018-07-13T22:27:37.407Z,8.90
2018-07-13T22:30:05.676Z,8.73
2018-07-13T22:32:33.868Z,8.50
2018-07-13T22:35:02.383Z,9.00
2018-07-13T22:37:30.540Z,9.17
2018-07-13T22:39:58.860Z,8.70
2018-07-13T22:42:26.988Z,9.23
2018-07-13T22:44:55.280Z,9.03
2018-07-13T22:47:23.499Z,9.50
2018-07-13T22:49:51.808Z,8.97
2018-07-13T22:52:20.008Z,9.73
2018-07-13T22:54:48.589Z,9.70
2018-07-13T22:57:16.958Z,9.43
2018-07-13T22:59:45.164Z,9.60
2018-07-13T23:02:13.757Z,9.87
2018-07-13T23:04:41.885Z,10.60
2018-07-13T23:07:10.097Z,10.10
2018-07-13T23:09:38.243Z,9.10
2018-07-13T23:12:06.539Z,9.03
2018-07-13T23:14:34.697Z,9.53
2018-07-13T23:17:03.269Z,9.63
2018-07-13T23:19:31.452Z,9.60
2018-07-13T23:21:59.678Z,9.10
2018-07-13T23:24:27.973Z,11.50
2018-07-13T23:26:56.130Z,9.53
2018-07-13T23:29:24.500Z,10.90
2018-07-13T23:31:52.848Z,10.77
2018-07-13T23:34:21.032Z,9.37
2018-07-13T23:36:49.209Z,10.87
2018-07-13T23:39:17.446Z,10.20
2018-07-13T23:41:45.646Z,11.17
2018-07-13T23:44:14.232Z,10.20
2018-07-13T23:46:42.403Z,9.60
2018-07-13T23:49:10.579Z,8.80
2018-07-13T23:51:38.801Z,11.00
2018-07-13T23:54:07.136Z,10.00
2018-07-13T23:56:35.411Z,15.80
2018-07-13T23:59:03.711Z,10.17
